sensor_id;sensor_type;location;lat;lon;timestamp;pressure;altitude;pressure_sealevel;temperature;humidity
44457;BME280;30159;49.316;8.558;2023-06-10T00:00:01;99980.41;;;22.36;62.66
44457;BME280;30159;49.316;8.558;2023-06-10T00:02:30;99970.56;;;22.35;62.74
44457;BME280;30159;49.316;8.558;2023-06-10T00:04:57;99973.19;;;22.28;62.94
44457;BME280;30159;49.316;8.558;2023-06-10T00:07:25;99973.59;;;22.26;63.33
44457;BME280;30159;49.316;8.558;2023-06-10T00:09:51;99973.16;;;22.24;63.85
44457;BME280;30159;49.316;8.558;2023-06-10T00:12:18;99972.19;;;22.17;63.96
44457;BME280;30159;49.316;8.558;2023-06-10T00:14:45;99965.69;;;22.02;64.34
44457;BME280;30159;49.316;8.558;2023-06-10T00:17:13;99971.06;;;21.95;64.65
44457;BME280;30159;49.316;8.558;2023-06-10T00:19:40;99963.06;;;21.86;65.06
44457;BME280;30159;49.316;8.558;2023-06-10T00:22:07;99956.69;;;21.78;65.27
44457;BME280;30159;49.316;8.558;2023-06-10T00:24:36;99926.34;;;21.48;65.64
44457;BME280;30159;49.316;8.558;2023-06-10T00:27:03;99957.34;;;21.72;66.21
44457;BME280;30159;49.316;8.558;2023-06-10T00:29:30;99963.13;;;21.66;66.49
44457;BME280;30159;49.316;8.558;2023-06-10T00:31:57;99965.75;;;21.59;66.92
44457;BME280;30159;49.316;8.558;2023-06-10T00:34:23;99971.13;;;21.52;66.78
44457;BME280;30159;49.316;8.558;2023-06-10T00:36:50;99959.56;;;21.43;67.83
44457;BME280;30159;49.316;8.558;2023-06-10T00:39:16;99985.06;;;21.43;67.72
44457;BME280;30159;49.316;8.558;2023-06-10T00:41:44;99966.03;;;21.35;68.06
44457;BME280;30159;49.316;8.558;2023-06-10T00:44:11;99967.38;;;21.21;68.93
44457;BME280;30159;49.316;8.558;2023-06-10T00:46:37;99973.94;;;21.17;69.27
44457;BME280;30159;49.316;8.558;2023-06-10T00:49:04;99976.59;;;21.13;69.28
44457;BME280;30159;49.316;8.558;2023-06-10T00:51:31;99977.25;;;21.07;69.79
44457;BME280;30159;49.316;8.558;2023-06-10T00:53:57;99977.47;;;20.98;70.20
44457;BME280;30159;49.316;8.558;2023-06-10T00:56:24;99979.34;;;20.94;70.74
44457;BME280;30159;49.316;8.558;2023-06-10T00:58:52;99974.84;;;20.86;71.15
44457;BME280;30159;49.316;8.558;2023-06-10T01:01:18;99968.78;;;20.76;71.32
44457;BME280;30159;49.316;8.558;2023-06-10T01:03:45;99978.94;;;20.76;71.60
44457;BME280;30159;49.316;8.558;2023-06-10T01:06:18;99972.16;;;20.70;72.51
44457;BME280;30159;49.316;8.558;2023-06-10T01:08:51;99979.88;;;20.64;72.55
44457;BME280;30159;49.316;8.558;2023-06-10T01:11:21;99976.19;;;20.56;73.27
44457;BME280;30159;49.316;8.558;2023-06-10T01:13:52;99918.19;;;20.03;73.94
44457;BME280;30159;49.316;8.558;2023-06-10T01:16:21;99882.88;;;19.82;75.44
44457;BME280;30159;49.316;8.558;2023-06-10T01:18:48;99983.97;;;20.38;75.11
44457;BME280;30159;49.316;8.558;2023-06-10T01:21:19;99979.53;;;20.34;75.71
44457;BME280;30159;49.316;8.558;2023-06-10T01:23:49;99971.06;;;20.23;75.80
44457;BME280;30159;49.316;8.558;2023-06-10T01:26:16;99993.97;;;20.31;75.81
44457;BME280;30159;49.316;8.558;2023-06-10T01:28:47;99993.06;;;20.27;76.07
44457;BME280;30159;49.316;8.558;2023-06-10T01:31:19;99998.22;;;20.28;75.79
44457;BME280;30159;49.316;8.558;2023-06-10T01:33:52;99996.16;;;20.25;76.15
44457;BME280;30159;49.316;8.558;2023-06-10T01:36:21;100003.06;;;20.19;76.37
44457;BME280;30159;49.316;8.558;2023-06-10T01:38:50;99971.34;;;20.02;76.23
44457;BME280;30159;49.316;8.558;2023-06-10T01:41:17;99927.78;;;19.65;76.67
44457;BME280;30159;49.316;8.558;2023-06-10T01:43:45;99996.44;;;20.04;77.34
44457;BME280;30159;49.316;8.558;2023-06-10T01:46:12;99999.00;;;19.97;78.00
44457;BME280;30159;49.316;8.558;2023-06-10T01:48:38;100007.63;;;19.83;78.49
44457;BME280;30159;49.316;8.558;2023-06-10T01:51:05;99996.69;;;19.83;79.03
44457;BME280;30159;49.316;8.558;2023-06-10T01:53:33;100004.72;;;19.76;79.35
44457;BME280;30159;49.316;8.558;2023-06-10T01:56:00;100001.31;;;19.67;79.68
44457;BME280;30159;49.316;8.558;2023-06-10T01:58:27;99995.84;;;19.67;79.65
44457;BME280;30159;49.316;8.558;2023-06-10T02:00:53;99995.19;;;19.57;79.64
44457;BME280;30159;49.316;8.558;2023-06-10T02:03:20;100001.69;;;19.65;79.49
44457;BME280;30159;49.316;8.558;2023-06-10T02:05:46;100004.31;;;19.62;80.25
44457;BME280;30159;49.316;8.558;2023-06-10T02:08:13;100020.28;;;19.59;79.53
44457;BME280;30159;49.316;8.558;2023-06-10T02:10:41;100006.84;;;19.54;80.10
44457;BME280;30159;49.316;8.558;2023-06-10T02:13:07;99996.81;;;19.58;80.28
44457;BME280;30159;49.316;8.558;2023-06-10T02:15:34;100002.63;;;19.57;80.25
44457;BME280;30159;49.316;8.558;2023-06-10T02:18:01;100004.81;;;19.51;80.65
44457;BME280;30159;49.316;8.558;2023-06-10T02:20:27;100011.88;;;19.52;80.24
44457;BME280;30159;49.316;8.558;2023-06-10T02:22:54;100008.44;;;19.55;80.35
44457;BME280;30159;49.316;8.558;2023-06-10T02:25:20;100017.25;;;19.49;81.04
44457;BME280;30159;49.316;8.558;2023-06-10T02:27:48;100009.44;;;19.35;81.83
44457;BME280;30159;49.316;8.558;2023-06-10T02:30:15;100016.63;;;19.40;82.26
44457;BME280;30159;49.316;8.558;2023-06-10T02:32:41;100010.25;;;19.35;82.87
44457;BME280;30159;49.316;8.558;2023-06-10T02:35:13;100016.41;;;19.32;82.80
44457;BME280;30159;49.316;8.558;2023-06-10T02:37:40;100017.19;;;19.33;83.16
44457;BME280;30159;49.316;8.558;2023-06-10T02:40:07;100023.00;;;19.31;83.30
44457;BME280;30159;49.316;8.558;2023-06-10T02:42:34;100021.06;;;19.32;83.58
44457;BME280;30159;49.316;8.558;2023-06-10T02:45:02;100016.41;;;19.32;83.34
44457;BME280;30159;49.316;8.558;2023-06-10T02:47:29;100022.47;;;19.26;84.34
44457;BME280;30159;49.316;8.558;2023-06-10T02:49:56;100033.16;;;19.31;83.62
44457;BME280;30159;49.316;8.558;2023-06-10T02:52:22;100019.75;;;19.26;84.17
44457;BME280;30159;49.316;8.558;2023-06-10T02:54:49;100034.44;;;19.21;84.51
44457;BME280;30159;49.316;8.558;2023-06-10T02:57:16;100028.88;;;19.17;85.12
44457;BME280;30159;49.316;8.558;2023-06-10T02:59:42;100030.69;;;19.13;85.45
44457;BME280;30159;49.316;8.558;2023-06-10T03:02:10;100032.44;;;19.06;86.04
44457;BME280;30159;49.316;8.558;2023-06-10T03:04:37;100031.44;;;18.98;86.90
44457;BME280;30159;49.316;8.558;2023-06-10T03:07:04;100032.09;;;18.95;87.40
44457;BME280;30159;49.316;8.558;2023-06-10T03:09:32;100024.84;;;18.87;87.78
44457;BME280;30159;49.316;8.558;2023-06-10T03:11:59;100025.09;;;18.82;88.22
44457;BME280;30159;49.316;8.558;2023-06-10T03:14:25;100030.09;;;18.80;88.96
44457;BME280;30159;49.316;8.558;2023-06-10T03:16:52;100037.59;;;18.83;88.73
44457;BME280;30159;49.316;8.558;2023-06-10T03:19:20;100040.88;;;18.76;89.96
44457;BME280;30159;49.316;8.558;2023-06-10T03:21:49;100030.19;;;18.71;89.85
44457;BME280;30159;49.316;8.558;2023-06-10T03:24:21;100039.97;;;18.72;89.72
44457;BME280;30159;49.316;8.558;2023-06-10T03:26:47;100037.47;;;18.67;90.33
44457;BME280;30159;49.316;8.558;2023-06-10T03:29:14;100048.06;;;18.68;90.01
44457;BME280;30159;49.316;8.558;2023-06-10T03:31:41;100037.25;;;18.60;90.68
44457;BME280;30159;49.316;8.558;2023-06-10T03:34:07;100048.06;;;18.68;89.90
44457;BME280;30159;49.316;8.558;2023-06-10T03:36:35;100041.22;;;18.62;90.02
44457;BME280;30159;49.316;8.558;2023-06-10T03:39:02;100048.28;;;18.63;90.98
44457;BME280;30159;49.316;8.558;2023-06-10T03:41:29;100052.38;;;18.57;90.59
44457;BME280;30159;49.316;8.558;2023-06-10T03:43:57;100046.59;;;18.59;91.47
44457;BME280;30159;49.316;8.558;2023-06-10T03:46:23;100056.72;;;18.58;91.91
44457;BME280;30159;49.316;8.558;2023-06-10T03:48:50;100060.13;;;18.55;92.42
44457;BME280;30159;49.316;8.558;2023-06-10T03:51:17;100047.84;;;18.61;92.11
44457;BME280;30159;49.316;8.558;2023-06-10T03:53:45;100053.75;;;18.63;92.63
44457;BME280;30159;49.316;8.558;2023-06-10T03:56:11;100055.56;;;18.71;91.97
44457;BME280;30159;49.316;8.558;2023-06-10T03:58:38;100056.47;;;18.75;91.65
44457;BME280;30159;49.316;8.558;2023-06-10T04:01:04;100052.81;;;18.71;91.67
44457;BME280;30159;49.316;8.558;2023-06-10T04:03:32;100061.28;;;18.79;91.32
44457;BME280;30159;49.316;8.558;2023-06-10T04:05:59;100059.81;;;18.81;91.09
44457;BME280;30159;49.316;8.558;2023-06-10T04:08:25;100059.22;;;18.88;90.71
44457;BME280;30159;49.316;8.558;2023-06-10T04:10:53;100048.28;;;18.88;91.06
44457;BME280;30159;49.316;8.558;2023-06-10T04:13:19;100058.34;;;18.84;91.92
44457;BME280;30159;49.316;8.558;2023-06-10T04:15:46;100051.25;;;18.83;92.45
44457;BME280;30159;49.316;8.558;2023-06-10T04:18:13;100054.66;;;18.92;92.09
44457;BME280;30159;49.316;8.558;2023-06-10T04:20:40;100058.63;;;18.94;91.94
44457;BME280;30159;49.316;8.558;2023-06-10T04:23:06;100055.91;;;19.07;91.36
44457;BME280;30159;49.316;8.558;2023-06-10T04:25:33;100064.66;;;19.12;91.83
44457;BME280;30159;49.316;8.558;2023-06-10T04:28:01;100061.09;;;19.24;91.60
44457;BME280;30159;49.316;8.558;2023-06-10T04:30:28;100068.59;;;19.40;90.87
44457;BME280;30159;49.316;8.558;2023-06-10T04:32:56;100060.00;;;19.41;92.17
44457;BME280;30159;49.316;8.558;2023-06-10T04:35:23;100041.31;;;19.43;90.11
44457;BME280;30159;49.316;8.558;2023-06-10T04:37:49;100075.78;;;19.72;90.41
44457;BME280;30159;49.316;8.558;2023-06-10T04:40:16;100071.31;;;19.96;88.84
44457;BME280;30159;49.316;8.558;2023-06-10T04:42:43;100069.03;;;20.14;86.55
44457;BME280;30159;49.316;8.558;2023-06-10T04:45:11;100076.75;;;20.40;85.63
44457;BME280;30159;49.316;8.558;2023-06-10T04:47:37;100075.25;;;20.74;84.27
44457;BME280;30159;49.316;8.558;2023-06-10T04:50:05;100077.94;;;21.06;82.72
44457;BME280;30159;49.316;8.558;2023-06-10T04:52:31;100082.09;;;21.35;80.81
44457;BME280;30159;49.316;8.558;2023-06-10T04:54:58;100078.16;;;21.52;79.25
44457;BME280;30159;49.316;8.558;2023-06-10T04:57:25;100071.69;;;21.83;78.22
44457;BME280;30159;49.316;8.558;2023-06-10T04:59:52;100049.84;;;21.91;74.67
44457;BME280;30159;49.316;8.558;2023-06-10T05:02:20;100078.03;;;22.30;73.41
44457;BME280;30159;49.316;8.558;2023-06-10T05:04:46;100081.13;;;22.51;73.11
44457;BME280;30159;49.316;8.558;2023-06-10T05:07:13;100086.25;;;22.76;71.47
44457;BME280;30159;49.316;8.558;2023-06-10T05:09:39;100089.84;;;23.03;71.05
44457;BME280;30159;49.316;8.558;2023-06-10T05:12:07;100089.09;;;23.37;69.97
44457;BME280;30159;49.316;8.558;2023-06-10T05:14:34;100091.25;;;23.50;68.20
44457;BME280;30159;49.316;8.558;2023-06-10T05:17:00;100059.22;;;23.72;66.14
44457;BME280;30159;49.316;8.558;2023-06-10T05:19:28;100094.41;;;24.24;65.57
44457;BME280;30159;49.316;8.558;2023-06-10T05:21:54;100097.31;;;24.42;65.72
44457;BME280;30159;49.316;8.558;2023-06-10T05:24:21;100098.13;;;24.42;66.74
44457;BME280;30159;49.316;8.558;2023-06-10T05:26:48;100091.78;;;24.83;65.08
44457;BME280;30159;49.316;8.558;2023-06-10T05:29:15;100094.88;;;25.36;64.65
44457;BME280;30159;49.316;8.558;2023-06-10T05:31:41;100096.59;;;25.84;63.57
44457;BME280;30159;49.316;8.558;2023-06-10T05:34:08;100096.75;;;26.77;61.55
44457;BME280;30159;49.316;8.558;2023-06-10T05:36:36;100096.38;;;27.95;57.86
44457;BME280;30159;49.316;8.558;2023-06-10T05:39:02;100092.66;;;29.10;55.65
44457;BME280;30159;49.316;8.558;2023-06-10T05:41:29;100100.25;;;29.75;53.68
44457;BME280;30159;49.316;8.558;2023-06-10T05:43:55;100092.06;;;30.45;52.59
44457;BME280;30159;49.316;8.558;2023-06-10T05:46:22;100095.38;;;31.07;50.92
44457;BME280;30159;49.316;8.558;2023-06-10T05:48:49;100099.06;;;31.61;50.32
44457;BME280;30159;49.316;8.558;2023-06-10T05:51:15;100109.31;;;32.20;49.45
44457;BME280;30159;49.316;8.558;2023-06-10T05:53:43;100108.28;;;32.47;47.54
44457;BME280;30159;49.316;8.558;2023-06-10T05:56:11;100103.56;;;33.64;46.86
44457;BME280;30159;49.316;8.558;2023-06-10T05:58:38;100113.16;;;34.66;45.70
44457;BME280;30159;49.316;8.558;2023-06-10T06:01:05;100102.78;;;34.02;45.23
44457;BME280;30159;49.316;8.558;2023-06-10T06:03:31;100102.75;;;34.66;44.31
44457;BME280;30159;49.316;8.558;2023-06-10T06:05:58;100108.84;;;35.43;43.46
44457;BME280;30159;49.316;8.558;2023-06-10T06:08:24;100111.09;;;36.29;42.61
44457;BME280;30159;49.316;8.558;2023-06-10T06:10:52;100108.38;;;38.01;40.79
44457;BME280;30159;49.316;8.558;2023-06-10T06:13:19;100109.66;;;39.11;39.99
44457;BME280;30159;49.316;8.558;2023-06-10T06:15:45;100108.34;;;40.16;38.11
44457;BME280;30159;49.316;8.558;2023-06-10T06:18:12;100102.59;;;39.75;36.94
44457;BME280;30159;49.316;8.558;2023-06-10T06:20:38;100096.50;;;39.97;37.42
44457;BME280;30159;49.316;8.558;2023-06-10T06:23:05;100099.81;;;40.93;36.36
44457;BME280;30159;49.316;8.558;2023-06-10T06:25:33;100106.56;;;41.47;36.86
44457;BME280;30159;49.316;8.558;2023-06-10T06:28:02;100112.44;;;41.44;36.12
44457;BME280;30159;49.316;8.558;2023-06-10T06:30:28;100113.81;;;41.02;36.10
44457;BME280;30159;49.316;8.558;2023-06-10T06:32:55;100118.34;;;41.40;37.15
44457;BME280;30159;49.316;8.558;2023-06-10T06:35:21;100120.78;;;41.85;36.07
44457;BME280;30159;49.316;8.558;2023-06-10T06:37:48;100121.28;;;42.26;35.57
44457;BME280;30159;49.316;8.558;2023-06-10T06:40:14;100124.03;;;42.09;35.56
44457;BME280;30159;49.316;8.558;2023-06-10T06:42:41;100123.22;;;42.41;35.36
44457;BME280;30159;49.316;8.558;2023-06-10T06:45:10;100135.38;;;42.09;34.88
44457;BME280;30159;49.316;8.558;2023-06-10T06:47:37;100130.75;;;42.12;35.08
44457;BME280;30159;49.316;8.558;2023-06-10T06:50:04;100121.78;;;42.68;34.38
44457;BME280;30159;49.316;8.558;2023-06-10T06:52:30;100121.47;;;40.55;36.48
44457;BME280;30159;49.316;8.558;2023-06-10T06:54:57;100116.72;;;41.34;36.12
44457;BME280;30159;49.316;8.558;2023-06-10T06:57:23;100125.28;;;42.03;35.95
44457;BME280;30159;49.316;8.558;2023-06-10T06:59:50;100128.34;;;41.67;35.71
44457;BME280;30159;49.316;8.558;2023-06-10T07:02:17;100117.66;;;41.51;35.43
44457;BME280;30159;49.316;8.558;2023-06-10T07:04:45;100121.75;;;39.27;36.99
44457;BME280;30159;49.316;8.558;2023-06-10T07:07:14;100096.03;;;35.64;41.36
44457;BME280;30159;49.316;8.558;2023-06-10T07:09:40;100118.56;;;37.89;39.63
44457;BME280;30159;49.316;8.558;2023-06-10T07:12:08;100113.84;;;39.01;38.83
44457;BME280;30159;49.316;8.558;2023-06-10T07:14:34;100115.22;;;39.95;36.85
44457;BME280;30159;49.316;8.558;2023-06-10T07:17:01;100127.94;;;40.76;36.37
44457;BME280;30159;49.316;8.558;2023-06-10T07:19:29;100105.97;;;40.30;36.23
44457;BME280;30159;49.316;8.558;2023-06-10T07:21:55;100124.38;;;41.27;36.01
44457;BME280;30159;49.316;8.558;2023-06-10T07:24:22;100118.28;;;41.35;35.64
44457;BME280;30159;49.316;8.558;2023-06-10T07:26:48;100116.72;;;41.34;35.62
44457;BME280;30159;49.316;8.558;2023-06-10T07:29:15;100118.31;;;41.66;35.35
44457;BME280;30159;49.316;8.558;2023-06-10T07:31:41;100133.44;;;42.27;35.03
44457;BME280;30159;49.316;8.558;2023-06-10T07:34:08;100138.84;;;38.93;37.75
44457;BME280;30159;49.316;8.558;2023-06-10T07:36:36;100118.09;;;38.00;38.73
44457;BME280;30159;49.316;8.558;2023-06-10T07:39:02;100111.06;;;37.35;39.09
44457;BME280;30159;49.316;8.558;2023-06-10T07:41:29;100102.47;;;35.52;41.00
44457;BME280;30159;49.316;8.558;2023-06-10T07:43:56;100119.50;;;35.58;41.54
44457;BME280;30159;49.316;8.558;2023-06-10T07:46:23;100119.94;;;36.68;40.59
44457;BME280;30159;49.316;8.558;2023-06-10T07:48:50;100107.06;;;37.69;39.30
44457;BME280;30159;49.316;8.558;2023-06-10T07:51:16;100126.97;;;36.82;39.88
44457;BME280;30159;49.316;8.558;2023-06-10T07:53:44;100112.75;;;36.58;39.94
44457;BME280;30159;49.316;8.558;2023-06-10T07:56:11;100110.69;;;36.00;40.72
44457;BME280;30159;49.316;8.558;2023-06-10T07:58:37;100110.41;;;35.76;41.85
44457;BME280;30159;49.316;8.558;2023-06-10T08:01:04;100114.09;;;34.37;43.16
44457;BME280;30159;49.316;8.558;2023-06-10T08:03:30;100114.16;;;35.07;43.29
44457;BME280;30159;49.316;8.558;2023-06-10T08:05:57;100108.69;;;37.94;39.94
44457;BME280;30159;49.316;8.558;2023-06-10T08:08:23;100117.13;;;39.38;38.50
44457;BME280;30159;49.316;8.558;2023-06-10T08:10:51;100113.22;;;40.31;36.91
44457;BME280;30159;49.316;8.558;2023-06-10T08:13:18;100125.69;;;38.09;39.18
44457;BME280;30159;49.316;8.558;2023-06-10T08:15:44;100124.97;;;37.20;40.18
44457;BME280;30159;49.316;8.558;2023-06-10T08:18:13;100116.88;;;34.62;42.51
44457;BME280;30159;49.316;8.558;2023-06-10T08:20:39;100104.81;;;32.26;45.23
44457;BME280;30159;49.316;8.558;2023-06-10T08:23:06;100114.41;;;30.89;48.13
44457;BME280;30159;49.316;8.558;2023-06-10T08:25:32;100122.41;;;29.82;50.27
44457;BME280;30159;49.316;8.558;2023-06-10T08:28:00;100113.38;;;29.40;50.63
44457;BME280;30159;49.316;8.558;2023-06-10T08:30:27;100121.75;;;29.36;51.62
44457;BME280;30159;49.316;8.558;2023-06-10T08:32:53;100120.00;;;29.50;51.02
44457;BME280;30159;49.316;8.558;2023-06-10T08:35:20;100116.25;;;29.33;52.06
44457;BME280;30159;49.316;8.558;2023-06-10T08:37:47;100107.91;;;29.33;52.45
44457;BME280;30159;49.316;8.558;2023-06-10T08:40:14;100106.56;;;29.45;52.23
44457;BME280;30159;49.316;8.558;2023-06-10T08:42:45;100103.72;;;29.48;52.00
44457;BME280;30159;49.316;8.558;2023-06-10T08:45:17;100109.38;;;29.03;52.29
44457;BME280;30159;49.316;8.558;2023-06-10T08:47:45;100120.78;;;28.74;53.34
44457;BME280;30159;49.316;8.558;2023-06-10T08:50:12;100105.28;;;28.25;53.50
44457;BME280;30159;49.316;8.558;2023-06-10T08:52:42;100110.47;;;28.19;54.90
44457;BME280;30159;49.316;8.558;2023-06-10T08:55:12;100079.16;;;28.22;53.42
44457;BME280;30159;49.316;8.558;2023-06-10T08:57:41;100099.81;;;28.10;54.00
44457;BME280;30159;49.316;8.558;2023-06-10T09:00:10;100096.22;;;28.13;54.63
44457;BME280;30159;49.316;8.558;2023-06-10T09:02:38;100097.59;;;27.87;54.11
44457;BME280;30159;49.316;8.558;2023-06-10T09:05:07;100093.59;;;27.95;54.74
44457;BME280;30159;49.316;8.558;2023-06-10T09:07:35;100091.13;;;28.12;55.13
44457;BME280;30159;49.316;8.558;2023-06-10T09:10:03;100091.66;;;28.41;54.11
44457;BME280;30159;49.316;8.558;2023-06-10T09:12:32;100054.81;;;28.41;53.62
44457;BME280;30159;49.316;8.558;2023-06-10T09:14:59;100091.28;;;28.88;54.16
44457;BME280;30159;49.316;8.558;2023-06-10T09:17:26;100048.13;;;28.34;54.54
44457;BME280;30159;49.316;8.558;2023-06-10T09:19:54;100089.75;;;28.34;53.57
44457;BME280;30159;49.316;8.558;2023-06-10T09:22:22;100093.56;;;27.99;53.60
44457;BME280;30159;49.316;8.558;2023-06-10T09:24:49;100083.53;;;27.39;54.92
44457;BME280;30159;49.316;8.558;2023-06-10T09:27:15;100085.53;;;27.42;55.17
44457;BME280;30159;49.316;8.558;2023-06-10T09:29:46;100085.81;;;27.62;55.78
44457;BME280;30159;49.316;8.558;2023-06-10T09:32:13;100072.66;;;27.87;55.68
44457;BME280;30159;49.316;8.558;2023-06-10T09:34:40;100079.53;;;28.24;53.50
44457;BME280;30159;49.316;8.558;2023-06-10T09:37:08;100081.69;;;28.02;53.18
44457;BME280;30159;49.316;8.558;2023-06-10T09:39:37;100080.81;;;28.12;53.64
44457;BME280;30159;49.316;8.558;2023-06-10T09:42:15;100057.72;;;28.26;53.94
44457;BME280;30159;49.316;8.558;2023-06-10T09:44:42;100063.72;;;28.70;52.59
44457;BME280;30159;49.316;8.558;2023-06-10T09:47:08;100070.25;;;28.49;52.26
44457;BME280;30159;49.316;8.558;2023-06-10T09:49:37;100072.66;;;28.47;53.63
44457;BME280;30159;49.316;8.558;2023-06-10T09:52:05;100061.91;;;28.90;53.02
44457;BME280;30159;49.316;8.558;2023-06-10T09:54:33;100054.78;;;28.89;53.30
44457;BME280;30159;49.316;8.558;2023-06-10T09:57:07;100012.06;;;28.79;52.46
44457;BME280;30159;49.316;8.558;2023-06-10T09:59:33;100058.72;;;28.92;53.35
44457;BME280;30159;49.316;8.558;2023-06-10T10:02:01;100053.16;;;28.92;52.56
44457;BME280;30159;49.316;8.558;2023-06-10T10:04:27;100052.94;;;28.75;52.49
44457;BME280;30159;49.316;8.558;2023-06-10T10:06:54;100052.75;;;28.93;51.99
44457;BME280;30159;49.316;8.558;2023-06-10T10:09:21;100052.94;;;29.13;51.15
44457;BME280;30159;49.316;8.558;2023-06-10T10:11:49;100048.22;;;29.45;51.88
44457;BME280;30159;49.316;8.558;2023-06-10T10:14:18;100037.75;;;29.56;50.41
44457;BME280;30159;49.316;8.558;2023-06-10T10:16:46;99999.53;;;29.33;51.26
44457;BME280;30159;49.316;8.558;2023-06-10T10:19:16;100028.94;;;29.88;50.56
44457;BME280;30159;49.316;8.558;2023-06-10T10:21:52;100036.75;;;29.39;49.55
44457;BME280;30159;49.316;8.558;2023-06-10T10:24:21;100035.81;;;28.81;49.84
44457;BME280;30159;49.316;8.558;2023-06-10T10:26:50;100035.63;;;28.98;50.74
44457;BME280;30159;49.316;8.558;2023-06-10T10:29:23;100033.84;;;29.19;50.54
44457;BME280;30159;49.316;8.558;2023-06-10T10:31:51;100027.94;;;29.13;50.14
44457;BME280;30159;49.316;8.558;2023-06-10T10:34:21;100010.91;;;29.11;51.48
44457;BME280;30159;49.316;8.558;2023-06-10T10:36:51;100029.44;;;29.22;51.25
44457;BME280;30159;49.316;8.558;2023-06-10T10:39:18;100030.47;;;29.35;49.22
44457;BME280;30159;49.316;8.558;2023-06-10T10:41:45;100033.06;;;29.18;50.03
44457;BME280;30159;49.316;8.558;2023-06-10T10:44:14;100029.63;;;29.38;48.74
44457;BME280;30159;49.316;8.558;2023-06-10T10:46:42;100028.22;;;29.23;48.86
44457;BME280;30159;49.316;8.558;2023-06-10T10:49:10;100032.31;;;29.14;50.12
44457;BME280;30159;49.316;8.558;2023-06-10T10:51:54;100023.38;;;28.96;50.24
44457;BME280;30159;49.316;8.558;2023-06-10T10:54:28;100020.59;;;28.96;50.20
44457;BME280;30159;49.316;8.558;2023-06-10T10:57:14;99988.91;;;28.90;49.95
44457;BME280;30159;49.316;8.558;2023-06-10T10:59:47;100033.06;;;29.18;50.24
44457;BME280;30159;49.316;8.558;2023-06-10T11:02:18;100026.94;;;28.96;51.13
44457;BME280;30159;49.316;8.558;2023-06-10T11:04:47;100030.25;;;28.84;51.61
44457;BME280;30159;49.316;8.558;2023-06-10T11:07:14;100024.75;;;29.15;51.64
44457;BME280;30159;49.316;8.558;2023-06-10T11:09:59;100024.66;;;29.53;50.95
44457;BME280;30159;49.316;8.558;2023-06-10T11:12:26;100012.75;;;29.52;50.68
44457;BME280;30159;49.316;8.558;2023-06-10T11:15:07;99987.06;;;29.72;49.67
44457;BME280;30159;49.316;8.558;2023-06-10T11:17:34;99996.63;;;29.98;49.40
44457;BME280;30159;49.316;8.558;2023-06-10T11:20:00;99999.09;;;30.16;48.65
44457;BME280;30159;49.316;8.558;2023-06-10T11:22:27;99997.53;;;30.38;48.40
44457;BME280;30159;49.316;8.558;2023-06-10T11:24:53;99999.19;;;30.56;47.02
44457;BME280;30159;49.316;8.558;2023-06-10T11:27:21;99998.75;;;30.37;47.17
44457;BME280;30159;49.316;8.558;2023-06-10T11:29:57;99997.94;;;30.13;48.05
44457;BME280;30159;49.316;8.558;2023-06-10T11:32:29;99991.75;;;30.02;47.64
44457;BME280;30159;49.316;8.558;2023-06-10T11:34:57;99956.88;;;29.97;47.91
44457;BME280;30159;49.316;8.558;2023-06-10T11:37:24;99984.34;;;30.19;47.83
44457;BME280;30159;49.316;8.558;2023-06-10T11:39:52;99992.59;;;30.26;48.00
44457;BME280;30159;49.316;8.558;2023-06-10T11:42:19;100001.84;;;30.43;47.73
44457;BME280;30159;49.316;8.558;2023-06-10T11:44:48;99963.50;;;30.31;46.89
44457;BME280;30159;49.316;8.558;2023-06-10T11:47:15;99991.38;;;30.27;47.26
44457;BME280;30159;49.316;8.558;2023-06-10T11:49:43;99989.66;;;30.10;47.53
44457;BME280;30159;49.316;8.558;2023-06-10T11:52:09;99960.56;;;29.91;47.42
44457;BME280;30159;49.316;8.558;2023-06-10T11:54:37;99981.50;;;30.22;47.75
44457;BME280;30159;49.316;8.558;2023-06-10T11:57:04;99978.72;;;30.46;47.16
44457;BME280;30159;49.316;8.558;2023-06-10T11:59:33;99981.34;;;30.33;46.85
44457;BME280;30159;49.316;8.558;2023-06-10T12:02:00;99935.03;;;30.19;47.42
44457;BME280;30159;49.316;8.558;2023-06-10T12:04:26;99978.75;;;30.66;46.43
44457;BME280;30159;49.316;8.558;2023-06-10T12:06:54;99979.06;;;30.92;46.20
44457;BME280;30159;49.316;8.558;2023-06-10T12:09:23;99990.16;;;30.52;46.20
44457;BME280;30159;49.316;8.558;2023-06-10T12:11:52;99983.97;;;30.17;47.39
44457;BME280;30159;49.316;8.558;2023-06-10T12:14:50;99977.81;;;30.06;46.80
44457;BME280;30159;49.316;8.558;2023-06-10T12:17:19;99988.94;;;30.06;47.47
44457;BME280;30159;49.316;8.558;2023-06-10T12:19:46;99983.41;;;30.02;46.92
44457;BME280;30159;49.316;8.558;2023-06-10T12:22:14;99984.81;;;29.90;47.18
44457;BME280;30159;49.316;8.558;2023-06-10T12:24:45;99988.94;;;29.82;47.80
44457;BME280;30159;49.316;8.558;2023-06-10T12:27:12;100003.25;;;29.50;47.94
44457;BME280;30159;49.316;8.558;2023-06-10T12:29:39;99986.84;;;29.32;48.02
44457;BME280;30159;49.316;8.558;2023-06-10T12:32:06;99983.84;;;29.46;47.65
44457;BME280;30159;49.316;8.558;2023-06-10T12:34:38;99983.84;;;29.19;47.25
44457;BME280;30159;49.316;8.558;2023-06-10T12:37:07;99952.63;;;29.04;46.39
44457;BME280;30159;49.316;8.558;2023-06-10T12:39:40;99983.06;;;29.18;47.17
44457;BME280;30159;49.316;8.558;2023-06-10T12:42:08;99988.88;;;29.28;47.60
44457;BME280;30159;49.316;8.558;2023-06-10T12:44:38;99991.22;;;29.29;45.95
44457;BME280;30159;49.316;8.558;2023-06-10T12:47:09;99986.78;;;29.35;46.27
44457;BME280;30159;49.316;8.558;2023-06-10T12:49:37;99983.19;;;29.66;45.15
44457;BME280;30159;49.316;8.558;2023-06-10T12:52:05;99962.50;;;29.67;45.23
44457;BME280;30159;49.316;8.558;2023-06-10T12:54:31;99986.16;;;29.82;43.93